createdAt,value
2022-12-18T00:00:08.655Z,35.95
2022-12-18T00:02:58.924Z,43.95
2022-12-18T00:06:21.485Z,43.80
2022-12-18T00:08:48.671Z,34.35
2022-12-18T00:11:17.749Z,43.53
2022-12-18T00:13:45.379Z,35.72
2022-12-18T00:16:20.537Z,47.50
2022-12-18T00:18:48.967Z,30.15
2022-12-18T00:21:18.361Z,31.60
2022-12-18T00:23:46.290Z,28.60
2022-12-18T00:26:24.397Z,30.77
2022-12-18T00:28:58.257Z,36.93
2022-12-18T00:31:28.602Z,37.60
2022-12-18T00:33:56.185Z,33.88
2022-12-18T00:36:25.780Z,41.28
2022-12-18T00:44:45.878Z,33.85
2022-12-18T00:47:13.316Z,35.05
2022-12-18T00:49:42.900Z,40.80
2022-12-18T00:52:10.003Z,28.13
2022-12-18T00:54:40.313Z,36.75
2022-12-18T00:57:09.122Z,36.38
2022-12-18T00:59:42.910Z,35.90
2022-12-18T01:02:14.291Z,36.17
2022-12-18T01:04:41.032Z,36.72
2022-12-18T01:07:07.731Z,33.15
2022-12-18T01:09:34.980Z,36.95
2022-12-18T01:12:01.634Z,35.50
2022-12-18T01:14:34.442Z,29.15
2022-12-18T01:17:04.002Z,35.90
2022-12-18T01:19:35.895Z,39.20
2022-12-18T01:22:08.431Z,25.75
2022-12-18T01:24:35.244Z,25.63
2022-12-18T01:27:03.404Z,36.42
2022-12-18T01:29:30.166Z,30.60
2022-12-18T01:31:57.116Z,42.38
2022-12-18T01:34:27.070Z,39.55
2022-12-18T01:36:55.930Z,28.65
2022-12-18T01:39:25.067Z,38.70
2022-12-18T01:42:03.698Z,27.40
2022-12-18T01:44:55.735Z,33.33
2022-12-18T01:47:30.973Z,30.83
2022-12-18T01:50:01.050Z,27.33
2022-12-18T01:52:35.509Z,28.13
2022-12-18T01:55:11.302Z,21.02
2022-12-18T01:57:39.393Z,29.20
2022-12-18T02:00:20.441Z,41.25
2022-12-18T02:02:48.122Z,31.48
2022-12-18T02:05:44.225Z,32.22
2022-12-18T02:08:24.705Z,36.30
2022-12-18T02:11:25.727Z,44.67
2022-12-18T02:13:52.369Z,29.55
2022-12-18T02:16:36.530Z,29.88
2022-12-18T02:19:36.160Z,38.20
2022-12-18T02:22:21.115Z,33.45
2022-12-18T02:25:13.036Z,29.00
2022-12-18T02:27:49.939Z,33.13
2022-12-18T02:30:17.620Z,31.90
2022-12-18T02:32:49.813Z,26.20
2022-12-18T02:35:22.258Z,22.50
2022-12-18T02:37:57.908Z,31.90
2022-12-18T02:40:27.868Z,33.90
2022-12-18T02:42:55.526Z,37.85
2022-12-18T02:45:23.776Z,37.30
2022-12-18T02:47:53.122Z,44.72
2022-12-18T02:50:42.093Z,40.15
2022-12-18T02:53:31.199Z,28.08
2022-12-18T02:56:23.028Z,24.48
2022-12-18T02:59:01.254Z,24.75
2022-12-18T03:02:06.028Z,31.77
2022-12-18T03:04:34.467Z,33.75
2022-12-18T03:07:44.001Z,32.53
2022-12-18T03:10:19.966Z,39.90
2022-12-18T03:12:59.788Z,28.50
2022-12-18T03:15:34.456Z,26.60
2022-12-18T03:18:29.222Z,38.75
2022-12-18T03:21:00.040Z,37.78
2022-12-18T03:23:33.593Z,29.08
2022-12-18T03:26:13.705Z,33.88
2022-12-18T03:28:49.500Z,28.67
2022-12-18T03:31:23.139Z,29.25
2022-12-18T03:36:21.832Z,24.85
2022-12-18T03:38:51.910Z,37.65
2022-12-18T03:41:50.189Z,29.42
2022-12-18T03:44:50.254Z,27.27
2022-12-18T03:47:47.186Z,25.55
2022-12-18T03:50:27.554Z,22.00
2022-12-18T03:53:17.933Z,37.13
2022-12-18T03:55:49.659Z,35.22
2022-12-18T03:58:23.091Z,26.30
2022-12-18T04:01:08.284Z,22.35
2022-12-18T04:03:37.667Z,26.73
2022-12-18T04:06:07.604Z,27.88
2022-12-18T04:08:37.288Z,25.90
2022-12-18T04:11:07.574Z,30.73
2022-12-18T04:13:45.510Z,29.55
2022-12-18T04:16:19.984Z,25.63
2022-12-18T04:18:53.287Z,24.23
2022-12-18T04:21:23.357Z,26.73
2022-12-18T04:23:54.543Z,27.02
2022-12-18T04:26:23.323Z,23.88
2022-12-18T04:29:13.232Z,19.73
2022-12-18T04:31:40.264Z,24.98
2022-12-18T04:34:07.451Z,21.98
2022-12-18T04:39:08.114Z,23.50
2022-12-18T04:41:35.240Z,20.65
2022-12-18T04:44:05.600Z,24.42
2022-12-18T04:46:34.575Z,22.80
2022-12-18T04:49:03.824Z,25.17
2022-12-18T04:51:33.094Z,24.17
2022-12-18T04:53:59.637Z,28.75
2022-12-18T04:56:26.283Z,23.05
2022-12-18T04:58:55.438Z,21.65
2022-12-18T05:01:22.199Z,30.52
2022-12-18T05:03:51.400Z,24.13
2022-12-18T05:06:18.039Z,26.58
2022-12-18T05:08:47.174Z,27.70
2022-12-18T05:11:18.615Z,28.80
2022-12-18T05:13:47.786Z,22.63
2022-12-18T05:16:20.116Z,20.33
2022-12-18T05:18:49.087Z,22.40
2022-12-18T05:21:15.890Z,25.30
2022-12-18T05:23:47.298Z,21.42
2022-12-18T05:26:18.444Z,16.75
2022-12-18T05:28:48.009Z,23.20
2022-12-18T05:31:14.890Z,18.20
2022-12-18T05:33:42.159Z,21.10
2022-12-18T05:36:10.476Z,29.77
2022-12-18T05:38:39.500Z,17.50
2022-12-18T05:41:07.322Z,19.80
2022-12-18T05:43:36.223Z,21.88
2022-12-18T05:46:15.691Z,27.17
2022-12-18T05:48:43.465Z,27.55
2022-12-18T05:51:14.650Z,16.63
2022-12-18T05:53:44.172Z,23.17
2022-12-18T05:56:20.591Z,22.17
2022-12-18T05:58:49.658Z,22.90
2022-12-18T06:01:21.844Z,19.42
2022-12-18T06:03:48.809Z,20.65
2022-12-18T06:06:24.387Z,17.98
2022-12-18T06:08:51.816Z,17.98
2022-12-18T06:11:23.833Z,22.85
2022-12-18T06:16:28.302Z,15.07
2022-12-18T06:19:03.466Z,18.88
2022-12-18T06:21:31.047Z,19.67
2022-12-18T06:24:00.201Z,19.27
2022-12-18T06:26:28.541Z,28.80
2022-12-18T06:28:55.882Z,19.52
2022-12-18T06:31:22.610Z,18.20
2022-12-18T06:33:51.915Z,21.08
2022-12-18T06:36:21.198Z,23.52
2022-12-18T06:38:50.310Z,21.02
2022-12-18T06:41:19.357Z,17.90
2022-12-18T06:43:46.132Z,19.73
2022-12-18T06:46:15.001Z,23.38
2022-12-18T06:48:41.815Z,23.33
2022-12-18T06:51:10.984Z,18.85
2022-12-18T06:53:38.582Z,23.42
2022-12-18T06:56:10.154Z,22.40
2022-12-18T06:58:38.635Z,16.20
2022-12-18T07:01:11.938Z,27.20
2022-12-18T07:03:44.563Z,20.73
2022-12-18T07:06:21.850Z,22.08
2022-12-18T07:08:50.255Z,27.35
2022-12-18T07:11:23.069Z,22.13
2022-12-18T07:13:53.789Z,33.65
2022-12-18T07:16:25.204Z,38.03
2022-12-18T07:18:54.615Z,25.17
2022-12-18T07:21:23.828Z,32.90
2022-12-18T07:23:56.430Z,44.10
2022-12-18T07:26:23.362Z,45.25
2022-12-18T07:28:50.183Z,40.20
2022-12-18T07:31:19.920Z,27.70
2022-12-18T07:33:51.196Z,29.88
2022-12-18T07:36:18.917Z,34.17
2022-12-18T07:38:48.336Z,32.13
2022-12-18T07:41:16.686Z,25.90
2022-12-18T07:43:43.985Z,29.20
2022-12-18T07:46:17.243Z,30.65
2022-12-18T07:48:49.349Z,25.80
2022-12-18T07:51:41.232Z,22.10
2022-12-18T07:54:07.858Z,21.80
2022-12-18T07:56:39.380Z,21.33
2022-12-18T07:59:05.929Z,24.42
2022-12-18T08:01:37.233Z,16.10
2022-12-18T08:04:04.152Z,16.00
2022-12-18T08:06:33.472Z,21.92
2022-12-18T08:09:00.166Z,30.02
2022-12-18T08:11:28.145Z,42.20
2022-12-18T08:13:58.252Z,35.78
2022-12-18T08:16:25.851Z,40.80
2022-12-18T08:18:54.238Z,39.20
2022-12-18T08:21:26.973Z,35.70
2022-12-18T08:23:56.033Z,40.50
2022-12-18T08:26:23.837Z,41.50
2022-12-18T08:28:51.486Z,42.97
2022-12-18T08:31:19.186Z,43.33
2022-12-18T08:33:52.514Z,39.92
2022-12-18T08:36:20.487Z,40.03
2022-12-18T08:38:50.961Z,38.60
2022-12-18T08:41:20.529Z,40.35
2022-12-18T08:44:11.112Z,37.70
2022-12-18T08:46:41.235Z,36.80
2022-12-18T08:49:12.016Z,35.80
2022-12-18T08:51:41.375Z,43.50
2022-12-18T08:54:17.414Z,41.58
2022-12-18T08:56:44.231Z,53.38
2022-12-18T08:59:19.718Z,52.50
2022-12-18T09:02:01.282Z,51.25
2022-12-18T09:04:31.974Z,37.58
2022-12-18T09:06:58.628Z,42.85
2022-12-18T09:09:31.255Z,38.15
2022-12-18T09:14:29.853Z,36.38
2022-12-18T09:16:56.622Z,35.10
2022-12-18T09:19:23.382Z,38.13
2022-12-18T09:21:50.337Z,36.80
2022-12-18T09:24:19.870Z,28.75
2022-12-18T09:26:50.690Z,39.28
2022-12-18T09:29:19.245Z,34.67
2022-12-18T09:31:48.115Z,39.72
2022-12-18T09:34:15.565Z,40.90
2022-12-18T09:36:48.248Z,38.67
2022-12-18T09:39:15.616Z,44.17
2022-12-18T09:41:53.590Z,46.05
2022-12-18T09:44:23.138Z,30.45
2022-12-18T09:47:23.752Z,30.88
2022-12-18T09:50:00.705Z,33.28
2022-12-18T09:52:36.960Z,22.02
2022-12-18T09:55:36.582Z,28.95
2022-12-18T09:58:19.431Z,21.17
2022-12-18T10:00:47.843Z,28.55
2022-12-18T10:03:15.853Z,31.67
2022-12-18T10:06:13.651Z,30.80
2022-12-18T10:08:44.998Z,39.15
2022-12-18T10:11:28.522Z,41.25
2022-12-18T10:14:29.346Z,41.30
2022-12-18T10:17:02.800Z,41.42
2022-12-18T10:19:38.829Z,44.53
2022-12-18T10:22:24.856Z,38.28
2022-12-18T10:25:23.398Z,39.38
2022-12-18T10:27:56.163Z,73.47
2022-12-18T10:30:24.644Z,65.28
2022-12-18T10:32:53.091Z,47.90
2022-12-18T10:35:27.080Z,41.80
2022-12-18T10:38:07.887Z,44.25
2022-12-18T10:40:51.684Z,42.33
2022-12-18T10:43:29.466Z,46.30
2022-12-18T10:46:08.804Z,40.97
2022-12-18T10:48:56.465Z,40.50
2022-12-18T10:51:31.738Z,47.70
2022-12-18T10:54:02.450Z,37.83
2022-12-18T10:56:35.121Z,37.38
2022-12-18T10:59:08.501Z,34.88
2022-12-18T11:02:19.736Z,43.65
2022-12-18T11:04:55.378Z,41.35
2022-12-18T11:07:24.238Z,41.08
2022-12-18T11:10:02.914Z,35.40
2022-12-18T11:12:30.229Z,39.60
2022-12-18T11:15:00.367Z,38.65
2022-12-18T11:17:38.640Z,43.45
2022-12-18T11:20:18.445Z,50.92
2022-12-18T11:22:58.541Z,37.78
2022-12-18T11:25:33.509Z,36.15
2022-12-18T11:28:24.947Z,42.95
2022-12-18T11:31:23.392Z,41.33
2022-12-18T11:34:29.842Z,42.65
2022-12-18T11:37:03.695Z,38.20
2022-12-18T11:39:56.770Z,40.78
2022-12-18T11:42:35.931Z,39.78
2022-12-18T11:45:22.072Z,35.60
2022-12-18T11:48:16.436Z,39.63
2022-12-18T11:50:55.953Z,42.08
2022-12-18T11:53:24.401Z,40.40
2022-12-18T11:56:28.276Z,37.97
2022-12-18T11:59:16.911Z,41.80
2022-12-18T12:01:55.472Z,44.60
2022-12-18T12:04:47.313Z,43.13
2022-12-18T12:07:26.025Z,36.85
2022-12-18T12:10:23.371Z,47.55
2022-12-18T12:13:14.198Z,40.08
2022-12-18T12:15:46.925Z,47.35
2022-12-18T12:18:29.372Z,41.45
2022-12-18T12:21:18.944Z,43.38
2022-12-18T12:24:33.826Z,45.78
2022-12-18T12:27:15.101Z,49.13
2022-12-18T12:29:47.186Z,47.05
2022-12-18T12:32:32.421Z,48.42
2022-12-18T12:35:40.283Z,46.83
2022-12-18T12:38:18.138Z,45.42
2022-12-18T12:41:27.973Z,49.92
2022-12-18T12:44:00.348Z,48.33
2022-12-18T12:46:33.694Z,48.67
2022-12-18T12:49:04.467Z,50.28
2022-12-18T12:51:41.794Z,49.22
2022-12-18T12:54:26.650Z,51.20
2022-12-18T12:57:24.367Z,50.13
2022-12-18T13:03:24.605Z,45.45
2022-12-18T13:20:43.096Z,66.38
2022-12-18T13:23:24.622Z,54.60
2022-12-18T13:25:52.456Z,44.88
2022-12-18T13:28:25.201Z,48.90
2022-12-18T13:30:57.700Z,52.03
2022-12-18T13:34:23.888Z,60.85
2022-12-18T13:36:38.779Z,82.18
2022-12-18T13:39:34.828Z,69.35
2022-12-18T13:42:05.478Z,57.85
2022-12-18T13:47:39.335Z,46.38
2022-12-18T13:50:46.786Z,66.13
2022-12-18T13:53:22.206Z,41.42
2022-12-18T13:55:50.063Z,30.35
2022-12-18T13:58:16.739Z,39.83
2022-12-18T14:00:44.848Z,34.58
2022-12-18T14:03:22.891Z,36.35
2022-12-18T14:05:58.229Z,35.75
2022-12-18T14:08:28.723Z,31.70
2022-12-18T14:10:56.738Z,33.55
2022-12-18T14:13:37.849Z,35.28
2022-12-18T14:16:07.695Z,34.08
2022-12-18T14:18:52.783Z,35.92
2022-12-18T14:21:23.725Z,30.08
2022-12-18T14:24:23.689Z,38.78
2022-12-18T14:26:51.542Z,33.17
2022-12-18T14:29:20.827Z,36.78
2022-12-18T14:32:04.784Z,33.70
2022-12-18T14:34:31.463Z,34.80
2022-12-18T14:37:00.221Z,42.67
2022-12-18T14:39:33.044Z,37.20
2022-12-18T14:41:59.923Z,44.28
2022-12-18T14:44:39.126Z,37.17
2022-12-18T14:47:17.760Z,37.45
2022-12-18T14:49:44.755Z,42.55
2022-12-18T14:52:27.920Z,37.10
2022-12-18T14:54:57.142Z,35.08
2022-12-18T14:57:44.749Z,32.65
2022-12-18T15:00:18.966Z,38.92
2022-12-18T15:02:59.189Z,32.17
2022-12-18T15:05:31.042Z,40.55
2022-12-18T15:08:00.141Z,39.53
2022-12-18T15:10:33.361Z,36.33
2022-12-18T15:13:00.937Z,32.33
2022-12-18T15:15:36.116Z,31.73
2022-12-18T15:18:11.744Z,41.08
2022-12-18T15:20:57.935Z,36.00
2022-12-18T15:23:30.613Z,39.50
2022-12-18T15:26:03.609Z,35.78
2022-12-18T15:28:50.379Z,35.17
2022-12-18T15:31:36.988Z,36.92
2022-12-18T15:34:08.828Z,32.00
2022-12-18T15:36:36.792Z,32.50
2022-12-18T15:39:05.131Z,39.63
2022-12-18T15:41:36.866Z,37.17
2022-12-18T15:44:23.500Z,40.70
2022-12-18T15:46:52.917Z,38.38
2022-12-18T15:49:32.144Z,35.25
2022-12-18T15:52:01.951Z,39.78
2022-12-18T15:54:49.786Z,70.38
2022-12-18T15:57:23.977Z,58.15
2022-12-18T15:59:53.438Z,42.00
2022-12-18T16:02:22.937Z,36.17
2022-12-18T16:04:52.199Z,36.05
2022-12-18T16:07:25.137Z,39.22
2022-12-18T16:09:53.243Z,39.53
2022-12-18T16:12:23.021Z,36.72
2022-12-18T16:14:51.642Z,37.65
2022-12-18T16:17:18.328Z,36.47
2022-12-18T16:19:45.358Z,37.22
2022-12-18T16:22:22.285Z,41.22
2022-12-18T16:24:50.237Z,36.05
2022-12-18T16:27:17.722Z,34.80
2022-12-18T16:29:44.700Z,44.30
2022-12-18T16:32:19.736Z,38.08
2022-12-18T16:34:47.040Z,33.20
2022-12-18T16:37:15.566Z,38.65
2022-12-18T16:39:43.025Z,29.13
2022-12-18T16:42:16.470Z,40.28
2022-12-18T16:44:46.996Z,34.40
2022-12-18T16:47:15.329Z,32.63
2022-12-18T16:49:45.989Z,43.47
2022-12-18T16:52:18.717Z,37.38
2022-12-18T16:54:45.339Z,32.78
2022-12-18T16:57:17.874Z,35.97
2022-12-18T16:59:53.188Z,39.55
2022-12-18T17:02:23.846Z,30.55
2022-12-18T17:04:54.466Z,44.95
2022-12-18T17:07:23.132Z,40.88
2022-12-18T17:09:50.480Z,35.20
2022-12-18T17:12:17.720Z,35.45
2022-12-18T17:14:46.596Z,39.25
2022-12-18T17:17:23.109Z,34.30
2022-12-18T17:19:51.507Z,36.33
2022-12-18T17:22:20.020Z,33.90
2022-12-18T17:24:47.177Z,44.97
2022-12-18T17:27:15.315Z,33.92
2022-12-18T17:29:48.444Z,37.33
2022-12-18T17:32:17.019Z,41.13
2022-12-18T17:34:46.031Z,34.22
2022-12-18T17:37:12.973Z,40.03
2022-12-18T17:39:39.828Z,35.58
2022-12-18T17:42:06.760Z,39.97
2022-12-18T17:44:37.910Z,36.17
2022-12-18T17:47:07.175Z,42.58
2022-12-18T17:49:34.043Z,37.72
2022-12-18T17:52:02.634Z,37.65
2022-12-18T17:54:32.529Z,36.78
2022-12-18T17:57:02.216Z,36.90
2022-12-18T17:59:36.587Z,38.08
2022-12-18T18:02:03.525Z,36.65
2022-12-18T18:04:30.321Z,39.22
2022-12-18T18:06:59.935Z,51.05
2022-12-18T18:09:26.963Z,74.00
2022-12-18T18:12:12.230Z,49.60
2022-12-18T18:14:40.299Z,51.05
2022-12-18T18:17:09.442Z,47.55
2022-12-18T18:19:41.541Z,53.25
2022-12-18T18:22:09.855Z,53.78
2022-12-18T18:24:39.564Z,55.28
2022-12-18T18:27:06.349Z,51.65
2022-12-18T18:29:35.811Z,51.55
2022-12-18T18:32:07.680Z,113.65
2022-12-18T18:34:36.674Z,127.68
2022-12-18T18:37:08.649Z,68.78
2022-12-18T18:39:38.151Z,66.22
2022-12-18T18:42:07.497Z,69.45
2022-12-18T18:44:39.110Z,87.63
2022-12-18T18:47:08.568Z,77.15
2022-12-18T18:49:39.144Z,73.78
2022-12-18T18:52:06.782Z,62.08
2022-12-18T18:54:33.498Z,62.13
2022-12-18T18:59:48.396Z,47.00
2022-12-18T19:02:19.453Z,56.65
2022-12-18T19:04:47.132Z,50.40
2022-12-18T19:07:29.728Z,76.18
2022-12-18T19:10:00.029Z,66.28
2022-12-18T19:12:51.211Z,61.83
2022-12-18T19:15:21.200Z,64.95
2022-12-18T19:17:52.145Z,65.72
2022-12-18T19:20:19.222Z,70.35
2022-12-18T19:22:56.004Z,62.30
2022-12-18T19:25:30.677Z,59.60
2022-12-18T19:28:12.059Z,65.03
2022-12-18T19:31:10.539Z,57.47
2022-12-18T19:33:43.602Z,64.30
2022-12-18T19:36:11.317Z,61.28
2022-12-18T19:38:39.179Z,52.40
2022-12-18T19:41:09.763Z,58.65
2022-12-18T19:43:37.865Z,61.05
2022-12-18T19:46:10.215Z,60.78
2022-12-18T19:48:37.465Z,59.38
2022-12-18T19:51:10.620Z,51.22
2022-12-18T19:53:39.638Z,55.38
2022-12-18T19:56:07.579Z,50.78
2022-12-18T19:58:34.741Z,51.97
2022-12-18T20:01:06.248Z,54.03
2022-12-18T20:03:37.634Z,59.65
2022-12-18T20:06:24.189Z,64.28
2022-12-18T20:09:00.825Z,49.08
2022-12-18T20:11:31.248Z,59.70
2022-12-18T20:14:00.440Z,57.65
2022-12-18T20:16:29.689Z,60.15
2022-12-18T20:18:59.840Z,56.10
2022-12-18T20:21:28.157Z,55.13
2022-12-18T20:23:59.147Z,88.55
2022-12-18T20:26:26.531Z,76.47
2022-12-18T20:28:56.330Z,66.82
2022-12-18T20:31:26.181Z,70.47
2022-12-18T20:34:01.771Z,61.35
2022-12-18T20:36:35.116Z,72.55
2022-12-18T20:39:06.479Z,63.13
2022-12-18T20:41:41.612Z,53.53
2022-12-18T20:44:23.271Z,63.50
2022-12-18T20:46:53.075Z,63.20
2022-12-18T20:49:22.071Z,52.83
2022-12-18T20:51:55.968Z,65.57
2022-12-18T20:54:24.918Z,58.13
2022-12-18T20:56:51.592Z,73.18
2022-12-18T20:59:19.073Z,78.85
2022-12-18T21:01:48.275Z,68.38
2022-12-18T21:04:19.284Z,58.40
2022-12-18T21:06:53.085Z,67.22
2022-12-18T21:09:27.147Z,76.95
2022-12-18T21:12:13.924Z,75.45
2022-12-18T21:14:46.356Z,73.32
2022-12-18T21:17:14.324Z,54.13
2022-12-18T21:19:41.085Z,60.00
2022-12-18T21:22:09.091Z,71.13
2022-12-18T21:24:35.706Z,63.42
2022-12-18T21:27:02.842Z,65.25
2022-12-18T21:29:32.652Z,64.30
2022-12-18T21:31:59.884Z,68.70
2022-12-18T21:34:31.369Z,56.42
2022-12-18T21:37:01.171Z,82.63
2022-12-18T21:39:34.071Z,65.63
2022-12-18T21:42:19.712Z,64.78
2022-12-18T21:44:48.940Z,79.15
2022-12-18T21:47:22.002Z,60.53
2022-12-18T21:49:53.095Z,52.88
2022-12-18T21:52:31.694Z,54.05
2022-12-18T21:55:08.352Z,55.35
2022-12-18T21:57:38.771Z,56.38
2022-12-18T22:00:12.516Z,59.83
2022-12-18T22:02:48.759Z,59.97
2022-12-18T22:05:35.125Z,57.03
2022-12-18T22:08:06.968Z,80.13
2022-12-18T22:10:34.295Z,61.33
2022-12-18T22:13:01.037Z,57.47
2022-12-18T22:15:30.351Z,57.85
2022-12-18T22:18:00.529Z,59.08
2022-12-18T22:20:30.304Z,55.88
2022-12-18T22:23:05.894Z,56.15
2022-12-18T22:25:35.241Z,67.43
2022-12-18T22:28:25.252Z,63.28
2022-12-18T22:30:57.753Z,58.92
2022-12-18T22:33:27.689Z,67.90
2022-12-18T22:35:54.670Z,66.10
2022-12-18T22:38:23.616Z,57.58
2022-12-18T22:40:50.226Z,49.90
2022-12-18T22:43:18.959Z,56.28
2022-12-18T22:45:48.358Z,49.97
2022-12-18T22:48:18.119Z,52.55
2022-12-18T22:50:46.747Z,48.30
2022-12-18T22:53:13.393Z,50.03
2022-12-18T22:55:43.628Z,62.33
2022-12-18T22:58:10.345Z,52.58
2022-12-18T23:00:37.006Z,53.35
2022-12-18T23:03:04.079Z,55.80
2022-12-18T23:05:36.447Z,57.97
2022-12-18T23:08:05.588Z,50.78
2022-12-18T23:10:36.017Z,52.55
2022-12-18T23:13:02.656Z,53.55
2022-12-18T23:15:40.125Z,58.67
2022-12-18T23:18:06.942Z,58.55
2022-12-18T23:20:37.511Z,59.85
2022-12-18T23:23:07.928Z,63.67
2022-12-18T23:25:36.876Z,96.82
2022-12-18T23:28:03.986Z,87.00
2022-12-18T23:30:33.895Z,62.03
2022-12-18T23:33:00.623Z,57.15
2022-12-18T23:35:28.795Z,55.85
2022-12-18T23:37:59.513Z,58.30
2022-12-18T23:40:27.307Z,49.13
2022-12-18T23:42:53.869Z,61.10
2022-12-18T23:45:22.610Z,48.70
2022-12-18T23:47:50.999Z,44.38
2022-12-18T23:50:27.694Z,45.70
2022-12-18T23:53:03.277Z,44.80
2022-12-18T23:55:37.755Z,42.42
2022-12-18T23:58:04.409Z,44.78
